Time;durP1;ratioP1;P1;durP2;ratioP2;P2;SDS_P1;SDS_P2;PMS_P1;PMS_P2;Temp;Humidity;BMP_temperature;BMP_pressure;BME280_temperature;BME280_humidity;BME280_pressure;Samples;Min_cycle;Max_cycle;Signal;HPM_P1;HPM_P2
2022/10/10 00:01:20;;;;;;;;;;;15.20;65.00;;;;;;5047740;28;82027;-37
2022/10/10 00:03:46;;;;;;;;;;;15.20;64.90;;;;;;5047391;27;82240;-36
2022/10/10 00:06:12;;;;;;;;;;;15.20;65.50;;;;;;5050040;28;83086;-37
2022/10/10 00:08:38;;;;;;;;;;;15.20;64.90;;;;;;5047916;27;82492;-36
2022/10/10 00:11:03;;;;;;;;;;;15.20;64.90;;;;;;5047069;28;83104;-37
2022/10/10 00:13:29;;;;;;;;;;;15.20;64.90;;;;;;5047110;28;82014;-37
2022/10/10 00:15:55;;;;;;;;;;;15.20;64.90;;;;;;5046610;27;82884;-37
2022/10/10 00:18:20;;;;;;;;;;;15.20;64.90;;;;;;5047282;28;83037;-37
2022/10/10 00:20:46;;;;;;;;;;;15.10;64.90;;;;;;5047300;28;81904;-37
2022/10/10 00:23:11;;;;;;;;;;;15.10;64.90;;;;;;5046526;28;82140;-37
2022/10/10 00:25:36;;;;;;;;;;;15.10;64.90;;;;;;5045814;27;81960;-37
2022/10/10 00:28:03;;;;;;;;;;;15.10;64.90;;;;;;5049730;28;82031;-37
2022/10/10 00:30:29;;;;;;;;;;;15.10;64.90;;;;;;5046742;28;82112;-37
2022/10/10 00:32:56;;;;;;;;;;;15.10;64.90;;;;;;5047480;28;81300;-37
2022/10/10 00:35:22;;;;;;;;;;;15.10;64.90;;;;;;5047164;28;81749;-36
2022/10/10 00:37:47;;;;;;;;;;;15.10;64.90;;;;;;5046747;28;83047;-37
2022/10/10 00:40:13;;;;;;;;;;;15.10;64.90;;;;;;5046214;28;83443;-37
2022/10/10 00:42:38;;;;;;;;;;;15.10;65.00;;;;;;5046789;28;83688;-36
2022/10/10 00:45:25;;;;;;;;;;;15.00;64.90;;;;;;5046613;28;83091;-37
2022/10/10 00:47:52;;;;;;;;;;;15.00;64.90;;;;;;5046892;28;81980;-36
2022/10/10 00:50:18;;;;;;;;;;;15.00;64.90;;;;;;5049233;27;81879;-36
2022/10/10 00:52:44;;;;;;;;;;;15.00;64.90;;;;;;5046671;28;82124;-37
2022/10/10 00:55:10;;;;;;;;;;;15.00;64.90;;;;;;5046519;28;82551;-36
2022/10/10 00:57:35;;;;;;;;;;;15.00;64.90;;;;;;5047090;28;82444;-36
2022/10/10 01:00:02;;;;;;;;;;;15.00;64.90;;;;;;5046403;28;81964;-36
2022/10/10 01:02:27;;;;;;;;;;;15.00;64.90;;;;;;5046505;27;82473;-37
2022/10/10 01:04:53;;;;;;;;;;;15.00;64.90;;;;;;5045802;28;84166;-37
2022/10/10 01:07:26;;;;;;;;;;;14.90;64.90;;;;;;5046478;28;82039;-37
2022/10/10 01:09:53;;;;;;;;;;;14.90;64.90;;;;;;5048895;27;82507;-37
2022/10/10 01:12:37;;;;;;;;;;;14.90;64.90;;;;;;5046334;28;82039;-37
2022/10/10 01:15:17;;;;;;;;;;;14.90;64.90;;;;;;5046288;28;82492;-37
2022/10/10 01:17:46;;;;;;;;;;;14.90;64.90;;;;;;5046288;28;82933;-36
2022/10/10 01:20:12;;;;;;;;;;;14.90;64.90;;;;;;5046131;28;81977;-37
2022/10/10 01:22:44;;;;;;;;;;;14.80;64.90;;;;;;5046386;28;82510;-36
2022/10/10 01:25:24;;;;;;;;;;;14.80;64.90;;;;;;5046182;28;82956;-36
2022/10/10 01:27:55;;;;;;;;;;;14.80;64.80;;;;;;5046200;28;81923;-36
2022/10/10 01:30:22;;;;;;;;;;;14.80;64.90;;;;;;5045633;28;82811;-37
2022/10/10 01:33:10;;;;;;;;;;;14.80;64.90;;;;;;5048903;28;82238;-37
2022/10/10 01:35:42;;;;;;;;;;;14.80;64.90;;;;;;5045561;27;81935;-36
2022/10/10 01:38:26;;;;;;;;;;;14.80;64.90;;;;;;5046072;28;82197;-37
2022/10/10 01:41:13;;;;;;;;;;;14.80;64.90;;;;;;5045966;27;81920;-36
2022/10/10 01:43:39;;;;;;;;;;;14.80;64.90;;;;;;5046178;27;82399;-36
2022/10/10 01:46:09;;;;;;;;;;;14.70;64.90;;;;;;5045855;28;83928;-37
2022/10/10 01:48:35;;;;;;;;;;;14.70;64.90;;;;;;5046452;27;81280;-37
2022/10/10 01:51:19;;;;;;;;;;;14.80;64.90;;;;;;5046016;27;82003;-37
2022/10/10 01:54:03;;;;;;;;;;;14.70;64.90;;;;;;5045437;27;82954;-37
2022/10/10 01:56:28;;;;;;;;;;;14.70;64.90;;;;;;5048356;27;83126;-37
2022/10/10 01:59:03;;;;;;;;;;;14.70;64.90;;;;;;5045741;28;83159;-37
2022/10/10 02:01:32;;;;;;;;;;;14.70;65.00;;;;;;5045921;28;82011;-37
2022/10/10 02:04:04;;;;;;;;;;;14.70;64.90;;;;;;5045852;28;82707;-37
2022/10/10 02:06:35;;;;;;;;;;;14.70;65.00;;;;;;5045565;28;82651;-37
2022/10/10 02:09:05;;;;;;;;;;;14.70;64.90;;;;;;5045830;28;81859;-37
2022/10/10 02:11:33;;;;;;;;;;;14.70;65.00;;;;;;5045612;27;82264;-36
2022/10/10 02:14:01;;;;;;;;;;;14.70;65.00;;;;;;5046000;28;82223;-37
2022/10/10 02:16:28;;;;;;;;;;;14.60;64.90;;;;;;5045371;28;81922;-37
2022/10/10 02:18:55;;;;;;;;;;;14.60;64.90;;;;;;5047911;28;82688;-37
2022/10/10 02:21:21;;;;;;;;;;;14.60;65.00;;;;;;5044838;28;82872;-37
2022/10/10 02:23:49;;;;;;;;;;;14.60;65.00;;;;;;5044865;28;83444;-37
2022/10/10 02:26:16;;;;;;;;;;;14.60;65.00;;;;;;5045168;28;82004;-36
2022/10/10 02:29:02;;;;;;;;;;;14.60;65.00;;;;;;5045492;28;81986;-37
2022/10/10 02:31:38;;;;;;;;;;;14.60;65.00;;;;;;5044791;28;82764;-36
2022/10/10 02:34:07;;;;;;;;;;;14.60;65.00;;;;;;5044898;28;82949;-36
2022/10/10 02:36:33;;;;;;;;;;;14.60;65.00;;;;;;5045475;28;81980;-38
2022/10/10 02:38:59;;;;;;;;;;;14.60;65.00;;;;;;5045837;27;82525;-37
2022/10/10 02:41:26;;;;;;;;;;;14.60;65.00;;;;;;5047817;28;83048;-37
2022/10/10 02:43:51;;;;;;;;;;;14.50;64.90;;;;;;5045162;28;82497;-37
2022/10/10 02:46:17;;;;;;;;;;;14.50;64.90;;;;;;5044101;28;83817;-37
2022/10/10 02:48:42;;;;;;;;;;;14.50;65.00;;;;;;5047485;27;82162;-36
2022/10/10 02:51:08;;;;;;;;;;;14.50;64.90;;;;;;5048903;27;82404;-37
2022/10/10 02:53:35;;;;;;;;;;;14.50;64.90;;;;;;5048519;28;83017;-37
2022/10/10 02:56:01;;;;;;;;;;;14.50;64.90;;;;;;5048647;28;82022;-37
2022/10/10 02:58:26;;;;;;;;;;;14.40;64.90;;;;;;5048489;27;82482;-37
2022/10/10 03:00:52;;;;;;;;;;;14.40;65.00;;;;;;5048342;28;82273;-36
2022/10/10 03:03:17;;;;;;;;;;;14.40;65.00;;;;;;5051552;28;81008;-36
2022/10/10 03:05:43;;;;;;;;;;;14.40;65.00;;;;;;5048087;28;82953;-37
2022/10/10 03:08:08;;;;;;;;;;;14.40;65.00;;;;;;5048399;28;82195;-37
2022/10/10 03:10:34;;;;;;;;;;;14.40;65.00;;;;;;5047846;28;82804;-36
2022/10/10 03:12:59;;;;;;;;;;;14.40;65.00;;;;;;5048325;28;83903;-36
2022/10/10 03:15:25;;;;;;;;;;;14.40;65.00;;;;;;5047984;28;82111;-37
2022/10/10 03:17:50;;;;;;;;;;;14.40;65.00;;;;;;5048271;28;82478;-37
2022/10/10 03:20:16;;;;;;;;;;;14.30;65.00;;;;;;5048149;28;82860;-37
2022/10/10 03:22:41;;;;;;;;;;;14.30;65.00;;;;;;5050609;28;82075;-37
2022/10/10 03:25:07;;;;;;;;;;;14.40;65.00;;;;;;5048019;28;83192;-37
2022/10/10 03:27:32;;;;;;;;;;;14.30;65.00;;;;;;5048541;28;81125;-37
2022/10/10 03:29:58;;;;;;;;;;;14.30;65.00;;;;;;5048079;28;81869;-37
2022/10/10 03:32:23;;;;;;;;;;;14.30;65.00;;;;;;5047777;28;83183;-37
2022/10/10 03:34:49;;;;;;;;;;;14.30;65.00;;;;;;5047298;28;82999;-37
2022/10/10 03:37:14;;;;;;;;;;;14.30;65.00;;;;;;5047787;28;83640;-37
2022/10/10 03:39:40;;;;;;;;;;;14.30;65.00;;;;;;5047842;28;83035;-36
2022/10/10 03:42:06;;;;;;;;;;;14.30;65.00;;;;;;5048042;28;81835;-38
2022/10/10 03:44:31;;;;;;;;;;;14.20;65.10;;;;;;5050079;27;81905;-36
2022/10/10 03:46:57;;;;;;;;;;;14.20;65.10;;;;;;5047645;28;82068;-36
2022/10/10 03:49:22;;;;;;;;;;;14.20;65.10;;;;;;5047656;28;81991;-37
2022/10/10 03:51:48;;;;;;;;;;;14.20;65.00;;;;;;5048153;28;82405;-37
2022/10/10 03:54:13;;;;;;;;;;;14.20;65.10;;;;;;5047634;28;81966;-37
2022/10/10 03:56:38;;;;;;;;;;;14.20;65.10;;;;;;5047702;28;81863;-37
2022/10/10 03:59:05;;;;;;;;;;;14.10;65.10;;;;;;5046698;27;84090;-36
2022/10/10 04:01:31;;;;;;;;;;;14.20;65.10;;;;;;5047350;28;82056;-37
2022/10/10 04:03:56;;;;;;;;;;;14.20;65.10;;;;;;5047411;28;82405;-37
2022/10/10 04:06:22;;;;;;;;;;;14.10;65.10;;;;;;5049915;28;82918;-36
2022/10/10 04:08:47;;;;;;;;;;;14.10;65.10;;;;;;5047385;27;82453;-37
2022/10/10 04:11:13;;;;;;;;;;;14.10;65.10;;;;;;5047457;28;83094;-37
2022/10/10 04:13:38;;;;;;;;;;;14.10;65.10;;;;;;5047632;28;82312;-37
2022/10/10 04:16:04;;;;;;;;;;;14.10;65.10;;;;;;5047732;28;82428;-36
2022/10/10 04:18:30;;;;;;;;;;;14.10;65.10;;;;;;5047067;28;82936;-36
2022/10/10 04:20:55;;;;;;;;;;;14.10;65.20;;;;;;5047122;28;82093;-36
2022/10/10 04:23:21;;;;;;;;;;;14.00;65.10;;;;;;5045924;28;82861;-37
2022/10/10 04:25:49;;;;;;;;;;;14.00;65.10;;;;;;5046900;28;82922;-37
2022/10/10 04:28:15;;;;;;;;;;;14.00;65.20;;;;;;5049653;28;82047;-37
2022/10/10 04:30:41;;;;;;;;;;;14.00;65.20;;;;;;5046726;28;82919;-36
2022/10/10 04:33:06;;;;;;;;;;;14.00;65.20;;;;;;5047074;28;82018;-36
2022/10/10 04:35:32;;;;;;;;;;;14.00;65.20;;;;;;5047000;28;82436;-36
2022/10/10 04:37:57;;;;;;;;;;;14.00;65.20;;;;;;5045080;28;85170;-36
2022/10/10 04:40:23;;;;;;;;;;;14.00;65.20;;;;;;5047459;28;81173;-36
2022/10/10 04:42:48;;;;;;;;;;;14.00;65.20;;;;;;5046902;28;82074;-37
2022/10/10 04:45:14;;;;;;;;;;;14.00;65.20;;;;;;5046561;28;83176;-37
2022/10/10 04:47:39;;;;;;;;;;;13.90;65.10;;;;;;5046215;28;83170;-36
2022/10/10 04:50:05;;;;;;;;;;;14.00;65.20;;;;;;5049333;28;83241;-36
2022/10/10 04:52:30;;;;;;;;;;;13.90;65.10;;;;;;5046916;28;83166;-37
2022/10/10 04:54:56;;;;;;;;;;;13.90;65.20;;;;;;5046679;28;82522;-37
2022/10/10 04:57:22;;;;;;;;;;;13.90;65.10;;;;;;5046599;28;82886;-37
2022/10/10 04:59:47;;;;;;;;;;;13.90;65.20;;;;;;5046462;28;82036;-37
2022/10/10 05:02:13;;;;;;;;;;;13.90;65.30;;;;;;5046520;28;81892;-36
2022/10/10 05:04:38;;;;;;;;;;;13.90;65.30;;;;;;5046912;28;82007;-36
2022/10/10 05:07:04;;;;;;;;;;;13.90;65.20;;;;;;5046406;28;81946;-36
2022/10/10 05:09:32;;;;;;;;;;;13.80;65.20;;;;;;5049017;28;82541;-37
2022/10/10 05:11:58;;;;;;;;;;;13.80;65.20;;;;;;5044973;27;82960;-36
2022/10/10 05:14:24;;;;;;;;;;;13.80;65.20;;;;;;5046036;27;83405;-36
2022/10/10 05:16:49;;;;;;;;;;;13.80;65.20;;;;;;5046306;28;83020;-36
2022/10/10 05:19:15;;;;;;;;;;;13.80;65.30;;;;;;5046484;28;81938;-37
2022/10/10 05:21:40;;;;;;;;;;;13.80;65.20;;;;;;5046519;28;82541;-36
2022/10/10 05:24:06;;;;;;;;;;;13.80;65.30;;;;;;5045612;28;83012;-37
2022/10/10 05:26:31;;;;;;;;;;;13.80;65.40;;;;;;5046194;28;82090;-37
2022/10/10 05:28:57;;;;;;;;;;;13.70;65.40;;;;;;5046634;27;82382;-36
2022/10/10 05:31:23;;;;;;;;;;;13.70;65.30;;;;;;5048614;28;82994;-37
2022/10/10 05:33:48;;;;;;;;;;;13.70;65.30;;;;;;5046151;28;82276;-37
2022/10/10 05:36:14;;;;;;;;;;;13.70;65.30;;;;;;5045292;28;83968;-37
2022/10/10 05:38:40;;;;;;;;;;;13.70;65.30;;;;;;5046063;28;82057;-37
2022/10/10 05:41:06;;;;;;;;;;;13.70;65.20;;;;;;5046303;28;82376;-36
2022/10/10 05:43:32;;;;;;;;;;;13.70;65.40;;;;;;5045879;28;83196;-36
2022/10/10 05:45:57;;;;;;;;;;;13.70;65.10;;;;;;5045756;28;82102;-37
2022/10/10 05:48:23;;;;;;;;;;;13.70;65.20;;;;;;5045931;28;82660;-37
2022/10/10 05:50:49;;;;;;;;;;;13.80;65.20;;;;;;5045716;28;82923;-38
2022/10/10 05:53:15;;;;;;;;;;;13.70;65.10;;;;;;5049114;28;81159;-37
2022/10/10 05:55:43;;;;;;;;;;;13.80;65.10;;;;;;5045815;28;82964;-36
2022/10/10 05:58:09;;;;;;;;;;;13.80;65.10;;;;;;5045725;28;82003;-36
2022/10/10 06:00:35;;;;;;;;;;;13.80;65.00;;;;;;5045003;27;82867;-36
2022/10/10 06:03:01;;;;;;;;;;;13.80;65.00;;;;;;5045758;28;82828;-37
2022/10/10 06:05:27;;;;;;;;;;;13.80;65.10;;;;;;5045559;28;82078;-36
2022/10/10 06:07:52;;;;;;;;;;;13.80;65.00;;;;;;5045639;28;82058;-37
2022/10/10 06:10:18;;;;;;;;;;;13.80;65.00;;;;;;5045592;28;83462;-37
2022/10/10 06:12:43;;;;;;;;;;;13.80;65.00;;;;;;5045840;28;82060;-36
2022/10/10 06:15:09;;;;;;;;;;;13.80;65.00;;;;;;5048144;28;81978;-36
2022/10/10 06:17:35;;;;;;;;;;;13.80;65.00;;;;;;5045771;28;81285;-36
2022/10/10 06:20:00;;;;;;;;;;;13.80;65.00;;;;;;5043949;28;83628;-36
2022/10/10 06:22:26;;;;;;;;;;;13.80;65.10;;;;;;5045733;27;83044;-37
2022/10/10 06:24:52;;;;;;;;;;;13.80;65.00;;;;;;5047976;28;84052;-36
2022/10/10 06:27:17;;;;;;;;;;;13.80;65.10;;;;;;5048927;27;83373;-37
2022/10/10 06:29:43;;;;;;;;;;;13.80;65.10;;;;;;5048763;28;82959;-36
2022/10/10 06:32:08;;;;;;;;;;;13.80;65.20;;;;;;5049011;28;81916;-36
2022/10/10 06:34:34;;;;;;;;;;;13.80;65.20;;;;;;5048735;28;82409;-37
2022/10/10 06:36:59;;;;;;;;;;;13.70;65.20;;;;;;5051500;28;83093;-37
2022/10/10 06:39:25;;;;;;;;;;;13.70;65.10;;;;;;5048864;28;82439;-37
2022/10/10 06:41:50;;;;;;;;;;;13.70;65.30;;;;;;5048981;28;81096;-36
2022/10/10 06:44:16;;;;;;;;;;;13.70;65.20;;;;;;5048844;28;82065;-37
2022/10/10 06:46:42;;;;;;;;;;;13.70;65.30;;;;;;5048540;27;81926;-37
2022/10/10 06:49:07;;;;;;;;;;;13.70;65.50;;;;;;5046287;28;86402;-37
2022/10/10 06:51:33;;;;;;;;;;;13.70;65.50;;;;;;5048761;28;82061;-37
2022/10/10 06:53:59;;;;;;;;;;;13.70;65.40;;;;;;5048651;27;82387;-36
2022/10/10 06:56:24;;;;;;;;;;;13.70;65.40;;;;;;5048597;28;83024;-37
2022/10/10 06:58:50;;;;;;;;;;;13.70;65.50;;;;;;5051391;28;82129;-37
2022/10/10 07:01:17;;;;;;;;;;;13.70;65.50;;;;;;5048070;28;81881;-37
2022/10/10 07:03:43;;;;;;;;;;;13.70;65.60;;;;;;5048308;28;82030;-36
2022/10/10 07:06:09;;;;;;;;;;;13.70;65.60;;;;;;5049071;27;82342;-37
2022/10/10 07:08:35;;;;;;;;;;;13.70;65.70;;;;;;5048153;28;83051;-36
2022/10/10 07:11:01;;;;;;;;;;;13.70;65.70;;;;;;5048470;28;82086;-37
2022/10/10 07:13:27;;;;;;;;;;;13.70;65.60;;;;;;5047832;27;82925;-36
2022/10/10 07:15:52;;;;;;;;;;;13.70;65.70;;;;;;5047914;28;83135;-36
2022/10/10 07:18:18;;;;;;;;;;;13.70;65.70;;;;;;5051089;28;82116;-36
2022/10/10 07:20:43;;;;;;;;;;;13.70;65.70;;;;;;5047987;28;82292;-37
2022/10/10 07:23:09;;;;;;;;;;;13.60;65.90;;;;;;5047763;28;82211;-37
2022/10/10 07:25:37;;;;;;;;;;;13.60;65.90;;;;;;5048075;27;82377;-37
2022/10/10 07:28:02;;;;;;;;;;;13.60;66.00;;;;;;5047862;28;82947;-36
2022/10/10 07:30:28;;;;;;;;;;;13.60;66.10;;;;;;5048324;28;81277;-36
2022/10/10 07:32:54;;;;;;;;;;;13.60;66.20;;;;;;5048324;28;82254;-37
2022/10/10 07:35:20;;;;;;;;;;;13.60;66.40;;;;;;5047013;27;82768;-37
2022/10/10 07:37:46;;;;;;;;;;;13.60;66.40;;;;;;5047399;28;83014;-37
2022/10/10 07:40:11;;;;;;;;;;;13.60;66.30;;;;;;5050512;27;83825;-36
2022/10/10 07:42:37;;;;;;;;;;;13.60;66.30;;;;;;5047840;28;82096;-36
2022/10/10 07:45:03;;;;;;;;;;;13.60;66.20;;;;;;5047735;27;82477;-36
2022/10/10 07:47:29;;;;;;;;;;;13.60;66.20;;;;;;5047678;28;83072;-36
2022/10/10 07:49:54;;;;;;;;;;;13.60;66.20;;;;;;5047703;28;82106;-36
2022/10/10 07:52:20;;;;;;;;;;;13.60;66.10;;;;;;5047858;28;82755;-37
2022/10/10 07:54:45;;;;;;;;;;;13.60;66.10;;;;;;5048009;28;81519;-36
2022/10/10 07:57:11;;;;;;;;;;;13.70;66.20;;;;;;5047789;28;81906;-36
2022/10/10 07:59:36;;;;;;;;;;;13.70;66.20;;;;;;5047478;28;81827;-37
2022/10/10 08:02:02;;;;;;;;;;;13.70;66.20;;;;;;5049439;28;84121;-37
2022/10/10 08:04:28;;;;;;;;;;;13.70;66.20;;;;;;5047566;27;83222;-36
2022/10/10 08:06:53;;;;;;;;;;;13.70;66.30;;;;;;5047348;28;82991;-37
2022/10/10 08:09:19;;;;;;;;;;;13.70;67.00;;;;;;5047419;28;82110;-37
2022/10/10 08:11:44;;;;;;;;;;;13.70;66.40;;;;;;5047425;28;82397;-36
2022/10/10 08:14:10;;;;;;;;;;;13.70;66.30;;;;;;5047277;28;82238;-37
2022/10/10 08:16:35;;;;;;;;;;;13.70;66.40;;;;;;5047142;28;82183;-37
2022/10/10 08:19:01;;;;;;;;;;;13.70;66.30;;;;;;5047696;28;82620;-37
2022/10/10 08:21:26;;;;;;;;;;;13.80;66.20;;;;;;5047145;28;83243;-37
2022/10/10 08:23:52;;;;;;;;;;;13.80;66.20;;;;;;5049516;28;82048;-37
2022/10/10 08:26:18;;;;;;;;;;;13.80;66.20;;;;;;5046328;28;83890;-36
2022/10/10 08:28:44;;;;;;;;;;;13.80;66.20;;;;;;5046939;28;81946;-37
2022/10/10 08:31:11;;;;;;;;;;;13.80;66.20;;;;;;5046914;28;82670;-37
2022/10/10 08:33:37;;;;;;;;;;;13.80;66.20;;;;;;5046707;28;83113;-37
2022/10/10 08:36:03;;;;;;;;;;;13.80;66.20;;;;;;5046960;28;82166;-38
2022/10/10 08:38:29;;;;;;;;;;;13.80;66.40;;;;;;5047134;27;82305;-37
2022/10/10 08:40:56;;;;;;;;;;;13.80;66.20;;;;;;5046821;28;83236;-37
2022/10/10 08:43:33;;;;;;;;;;;13.80;66.30;;;;;;5047521;28;81321;-38
2022/10/10 08:46:04;;;;;;;;;;;13.80;66.20;;;;;;5048495;27;81863;-37
2022/10/10 08:48:29;;;;;;;;;;;13.80;66.20;;;;;;5047027;28;81885;-37
2022/10/10 08:50:58;;;;;;;;;;;13.80;66.20;;;;;;5046336;27;82694;-37
2022/10/10 08:53:31;;;;;;;;;;;13.80;66.20;;;;;;5046681;28;82889;-37
2022/10/10 08:55:56;;;;;;;;;;;13.80;66.20;;;;;;5046589;28;82126;-37
2022/10/10 08:58:25;;;;;;;;;;;13.80;66.20;;;;;;5046661;28;82051;-37
2022/10/10 09:00:55;;;;;;;;;;;13.80;66.20;;;;;;5046643;28;82246;-37
2022/10/10 09:03:29;;;;;;;;;;;13.80;66.30;;;;;;5046376;28;82837;-37
2022/10/10 09:06:01;;;;;;;;;;;13.80;66.20;;;;;;5046653;28;82028;-38
2022/10/10 09:08:26;;;;;;;;;;;13.80;66.40;;;;;;5049811;28;82568;-37
2022/10/10 09:10:57;;;;;;;;;;;13.90;66.40;;;;;;5045042;28;82404;-37
2022/10/10 09:13:36;;;;;;;;;;;13.80;66.30;;;;;;5046302;28;82874;-37
2022/10/10 09:16:21;;;;;;;;;;;13.90;66.30;;;;;;5045656;28;82952;-37
2022/10/10 09:18:58;;;;;;;;;;;13.90;66.30;;;;;;5045517;28;83260;-37
2022/10/10 09:21:36;;;;;;;;;;;13.90;66.40;;;;;;5046153;28;83107;-37
2022/10/10 09:24:11;;;;;;;;;;;13.90;66.50;;;;;;5045545;28;82056;-37
2022/10/10 09:26:39;;;;;;;;;;;13.90;66.60;;;;;;5046300;28;82370;-37
2022/10/10 09:29:23;;;;;;;;;;;13.90;66.50;;;;;;5048809;28;81978;-38
2022/10/10 09:31:51;;;;;;;;;;;14.00;66.40;;;;;;5045958;27;81904;-37
2022/10/10 09:34:27;;;;;;;;;;;14.00;66.40;;;;;;5046074;27;82205;-37
2022/10/10 09:36:53;;;;;;;;;;;13.90;67.00;;;;;;5046187;28;81946;-37
2022/10/10 09:39:18;;;;;;;;;;;14.00;66.70;;;;;;5045931;28;83293;-37
2022/10/10 09:41:55;;;;;;;;;;;14.00;66.80;;;;;;5045210;28;83982;-37
2022/10/10 09:44:21;;;;;;;;;;;14.00;66.80;;;;;;5045864;28;82102;-37
2022/10/10 09:46:47;;;;;;;;;;;14.00;66.80;;;;;;5046041;28;82480;-38
2022/10/10 09:49:16;;;;;;;;;;;14.00;66.80;;;;;;5045667;28;82387;-37
2022/10/10 09:51:42;;;;;;;;;;;14.00;66.90;;;;;;5048626;28;81962;-37
2022/10/10 09:54:08;;;;;;;;;;;14.00;67.00;;;;;;5045515;28;82931;-38
2022/10/10 09:56:39;;;;;;;;;;;14.00;67.10;;;;;;5046322;27;82133;-37
2022/10/10 09:59:04;;;;;;;;;;;14.00;67.10;;;;;;5049954;27;82434;-38
2022/10/10 10:01:33;;;;;;;;;;;14.00;67.50;;;;;;5049342;28;82253;-37
2022/10/10 10:04:04;;;;;;;;;;;14.00;67.30;;;;;;5049400;28;82229;-37
2022/10/10 10:06:30;;;;;;;;;;;14.10;67.40;;;;;;5048710;28;82951;-37
2022/10/10 10:08:59;;;;;;;;;;;14.00;67.30;;;;;;5049370;28;82238;-37
2022/10/10 10:11:27;;;;;;;;;;;14.00;67.20;;;;;;5049005;28;82083;-38
2022/10/10 10:13:54;;;;;;;;;;;14.10;67.40;;;;;;5051664;27;82192;-37
2022/10/10 10:16:27;;;;;;;;;;;14.10;67.50;;;;;;5049311;28;81781;-37
2022/10/10 10:18:53;;;;;;;;;;;14.10;67.40;;;;;;5049046;27;84786;-37
2022/10/10 10:21:22;;;;;;;;;;;14.10;67.50;;;;;;5045397;28;88159;-37
2022/10/10 10:24:00;;;;;;;;;;;14.10;67.70;;;;;;5045425;28;87462;-37
2022/10/10 10:26:42;;;;;;;;;;;14.10;67.50;;;;;;5045722;28;86991;-37
2022/10/10 10:29:26;;;;;;;;;;;14.10;67.50;;;;;;5045235;28;87123;-37
2022/10/10 10:31:57;;;;;;;;;;;14.10;67.50;;;;;;5044871;28;87836;-37
2022/10/10 10:34:30;;;;;;;;;;;14.10;67.50;;;;;;5045253;28;87377;-36
2022/10/10 10:37:05;;;;;;;;;;;14.10;67.60;;;;;;5048087;28;88185;-37
2022/10/10 10:39:48;;;;;;;;;;;14.20;67.60;;;;;;5045470;28;87446;-37
2022/10/10 10:42:23;;;;;;;;;;;14.10;67.60;;;;;;5044961;28;88584;-38
2022/10/10 10:45:07;;;;;;;;;;;14.20;67.50;;;;;;5045243;28;86985;-37
2022/10/10 10:47:32;;;;;;;;;;;14.20;67.50;;;;;;5045445;27;87019;-37
2022/10/10 10:49:58;;;;;;;;;;;14.20;67.70;;;;;;5045554;28;87252;-37
2022/10/10 10:52:36;;;;;;;;;;;14.20;67.60;;;;;;5045318;28;87814;-38
2022/10/10 10:55:07;;;;;;;;;;;14.20;67.70;;;;;;5045470;27;87435;-38
2022/10/10 10:57:41;;;;;;;;;;;14.20;67.70;;;;;;5043928;28;87967;-37
2022/10/10 11:00:12;;;;;;;;;;;14.20;67.70;;;;;;5048187;28;87060;-37
2022/10/10 11:03:04;;;;;;;;;;;14.20;67.80;;;;;;5044555;28;88018;-37
2022/10/10 11:05:34;;;;;;;;;;;14.20;67.90;;;;;;5042668;28;86825;-38
2022/10/10 11:08:18;;;;;;;;;;;14.20;67.80;;;;;;5044339;27;87436;-37
2022/10/10 11:11:16;;;;;;;;;;;14.30;67.90;;;;;;5044678;27;87952;-37
2022/10/10 11:13:47;;;;;;;;;;;14.30;68.00;;;;;;5020919;28;87174;-37
2022/10/10 11:16:21;;;;;;;;;;;14.30;67.90;;;;;;5045037;28;86995;-37
2022/10/10 11:18:56;;;;;;;;;;;14.30;67.90;;;;;;5044443;28;88256;-37
2022/10/10 11:21:23;;;;;;;;;;;14.30;67.90;;;;;;5044799;28;87040;-37
2022/10/10 11:23:53;;;;;;;;;;;14.30;68.00;;;;;;5046129;27;88069;-37
2022/10/10 11:26:36;;;;;;;;;;;14.30;67.90;;;;;;5044484;28;87168;-37
2022/10/10 11:29:09;;;;;;;;;;;14.30;67.90;;;;;;5044750;27;87486;-37
2022/10/10 11:31:38;;;;;;;;;;;14.30;67.90;;;;;;5044433;28;87981;-38
2022/10/10 11:34:08;;;;;;;;;;;14.30;67.90;;;;;;5044554;28;87096;-37
2022/10/10 11:36:37;;;;;;;;;;;14.40;68.00;;;;;;5044744;27;87379;-37
2022/10/10 11:39:10;;;;;;;;;;;14.30;68.00;;;;;;5044044;28;88123;-37
2022/10/10 11:41:40;;;;;;;;;;;14.40;68.00;;;;;;5045294;28;86042;-38
2022/10/10 11:44:35;;;;;;;;;;;14.40;68.00;;;;;;5047332;28;86996;-37
2022/10/10 11:47:10;;;;;;;;;;;14.40;68.00;;;;;;5034583;28;87203;-38
2022/10/10 11:49:52;;;;;;;;;;;14.40;68.00;;;;;;5043595;27;88031;-37
2022/10/10 11:52:28;;;;;;;;;;;14.40;68.60;;;;;;5043960;28;87994;-38
2022/10/10 11:55:08;;;;;;;;;;;14.40;67.90;;;;;;5044146;28;87191;-37
2022/10/10 11:57:42;;;;;;;;;;;14.50;68.00;;;;;;5044481;27;87341;-38
2022/10/10 12:00:14;;;;;;;;;;;14.50;68.00;;;;;;5043495;28;88448;-38
2022/10/10 12:02:41;;;;;;;;;;;14.50;68.10;;;;;;5044110;28;86959;-37
2022/10/10 12:05:18;;;;;;;;;;;14.50;68.00;;;;;;5044080;28;87357;-37
2022/10/10 12:07:52;;;;;;;;;;;14.50;68.00;;;;;;5047267;28;87257;-37
2022/10/10 12:10:22;;;;;;;;;;;14.60;68.00;;;;;;5044180;28;87038;-38
2022/10/10 12:12:50;;;;;;;;;;;14.60;67.90;;;;;;5043353;28;87117;-37
2022/10/10 12:15:22;;;;;;;;;;;14.60;68.60;;;;;;5041551;28;88058;-37
2022/10/10 12:17:48;;;;;;;;;;;14.60;68.00;;;;;;5044036;28;88470;-37
2022/10/10 12:20:13;;;;;;;;;;;14.60;67.80;;;;;;5043538;27;88207;-37
2022/10/10 12:22:39;;;;;;;;;;;14.60;67.90;;;;;;5043649;28;87344;-37
2022/10/10 12:25:22;;;;;;;;;;;14.70;67.80;;;;;;5043856;28;87494;-37
2022/10/10 12:28:00;;;;;;;;;;;14.70;68.00;;;;;;5043147;28;88359;-37
2022/10/10 12:30:26;;;;;;;;;;;14.70;67.80;;;;;;5046788;28;86961;-37
2022/10/10 12:32:53;;;;;;;;;;;14.70;67.90;;;;;;5043923;28;86392;-38
2022/10/10 12:35:33;;;;;;;;;;;14.70;68.50;;;;;;5043333;28;87171;-37
2022/10/10 12:38:04;;;;;;;;;;;14.70;68.00;;;;;;5043697;28;87614;-37
2022/10/10 12:40:30;;;;;;;;;;;14.70;67.90;;;;;;5042581;28;89238;-37
2022/10/10 12:42:56;;;;;;;;;;;14.70;68.00;;;;;;5043549;28;87080;-37
2022/10/10 12:45:27;;;;;;;;;;;14.70;68.00;;;;;;5043627;27;87541;-37
2022/10/10 12:47:53;;;;;;;;;;;14.80;68.10;;;;;;5043107;28;88002;-37
2022/10/10 12:50:24;;;;;;;;;;;14.80;68.00;;;;;;5043392;28;86996;-37
2022/10/10 12:53:04;;;;;;;;;;;14.80;68.00;;;;;;5046151;27;87436;-38
2022/10/10 12:55:31;;;;;;;;;;;14.80;68.00;;;;;;5043251;28;87126;-38
2022/10/10 12:58:01;;;;;;;;;;;14.80;68.00;;;;;;5043621;27;87537;-37
2022/10/10 13:00:34;;;;;;;;;;;14.80;68.00;;;;;;5042635;28;88296;-37
2022/10/10 13:03:01;;;;;;;;;;;14.90;68.00;;;;;;5043434;28;86892;-37
2022/10/10 13:05:28;;;;;;;;;;;14.90;68.00;;;;;;5042521;27;87901;-37
2022/10/10 13:07:57;;;;;;;;;;;14.90;68.00;;;;;;5042731;28;88007;-37
2022/10/10 13:10:24;;;;;;;;;;;14.90;68.00;;;;;;5042958;28;87182;-37
2022/10/10 13:13:00;;;;;;;;;;;14.90;68.10;;;;;;5043005;28;87395;-36
2022/10/10 13:15:26;;;;;;;;;;;15.00;68.10;;;;;;5043911;28;91400;-37
2022/10/10 13:17:51;;;;;;;;;;;14.90;68.10;;;;;;5043185;27;87346;-37
2022/10/10 13:20:28;;;;;;;;;;;15.00;68.10;;;;;;5042757;28;87120;-37
2022/10/10 13:22:54;;;;;;;;;;;15.00;68.10;;;;;;5043104;28;86396;-38
2022/10/10 13:25:20;;;;;;;;;;;15.00;68.10;;;;;;5043255;27;86870;-37
2022/10/10 13:27:45;;;;;;;;;;;15.00;68.10;;;;;;5042336;28;87999;-38
2022/10/10 13:30:18;;;;;;;;;;;15.00;68.10;;;;;;5042177;28;87743;-37
2022/10/10 13:32:44;;;;;;;;;;;15.10;68.10;;;;;;5042344;28;87033;-37
2022/10/10 13:35:15;;;;;;;;;;;15.10;68.00;;;;;;5042280;27;88404;-37
2022/10/10 13:37:41;;;;;;;;;;;15.10;67.90;;;;;;5045516;28;87026;-38
2022/10/10 13:40:14;;;;;;;;;;;15.10;68.00;;;;;;5042467;28;88033;-37
2022/10/10 13:42:40;;;;;;;;;;;15.10;68.00;;;;;;5042587;28;87236;-37
2022/10/10 13:45:21;;;;;;;;;;;15.20;68.00;;;;;;5042594;27;88007;-38
2022/10/10 13:47:51;;;;;;;;;;;15.20;68.00;;;;;;5042695;28;87446;-37
2022/10/10 13:50:20;;;;;;;;;;;15.20;68.10;;;;;;5042596;28;87123;-37
2022/10/10 13:52:45;;;;;;;;;;;15.20;68.10;;;;;;5042785;28;86987;-37
2022/10/10 13:55:21;;;;;;;;;;;15.20;68.20;;;;;;5041361;28;89213;-37
2022/10/10 13:57:46;;;;;;;;;;;15.20;68.10;;;;;;5045452;28;86845;-37
2022/10/10 14:00:17;;;;;;;;;;;15.20;68.20;;;;;;5042246;28;87173;-37
2022/10/10 14:02:44;;;;;;;;;;;15.20;68.20;;;;;;5042436;28;87102;-38
2022/10/10 14:05:30;;;;;;;;;;;15.30;68.30;;;;;;5042447;27;87510;-37
2022/10/10 14:07:56;;;;;;;;;;;15.20;68.20;;;;;;5041960;28;89873;-38
2022/10/10 14:10:26;;;;;;;;;;;15.30;68.20;;;;;;5042379;28;87087;-37
2022/10/10 14:12:58;;;;;;;;;;;15.30;68.30;;;;;;5042785;27;87399;-37
2022/10/10 14:15:36;;;;;;;;;;;15.30;68.40;;;;;;5041682;28;87905;-38
2022/10/10 14:18:21;;;;;;;;;;;15.30;68.30;;;;;;5042313;28;87077;-37
2022/10/10 14:20:47;;;;;;;;;;;15.30;68.40;;;;;;5043696;28;88327;-38
2022/10/10 14:23:13;;;;;;;;;;;15.30;68.20;;;;;;5041675;28;87145;-38
2022/10/10 14:25:42;;;;;;;;;;;15.30;68.30;;;;;;5042095;28;87464;-37